createdAt,value
2022-08-02T00:00:58.254Z,98057.00
2022-08-02T00:03:25.551Z,98061.97
2022-08-02T00:05:54.061Z,98062.78
2022-08-02T00:08:22.596Z,98064.13
2022-08-02T00:10:50.293Z,98063.31
2022-08-02T00:13:17.838Z,98055.84
2022-08-02T00:15:45.208Z,98057.19
2022-08-02T00:18:12.561Z,98057.84
2022-08-02T00:20:40.114Z,98057.50
2022-08-02T00:23:07.341Z,98054.84
2022-08-02T00:25:34.747Z,98063.13
2022-08-02T00:28:02.189Z,98061.97
2022-08-02T00:30:29.441Z,98060.13
2022-08-02T00:32:56.666Z,98057.66
2022-08-02T00:35:24.119Z,98060.13
2022-08-02T00:37:51.509Z,98063.13
2022-08-02T00:40:23.699Z,98065.13
2022-08-02T00:43:11.673Z,98069.44
2022-08-02T00:46:02.297Z,98076.56
2022-08-02T00:48:29.025Z,98078.25
2022-08-02T00:50:57.653Z,98076.41
2022-08-02T00:53:24.910Z,98076.72
2022-08-02T00:55:52.790Z,98080.38
2022-08-02T00:58:20.080Z,98085.69
2022-08-02T01:00:47.512Z,98087.84
2022-08-02T01:03:15.209Z,98087.03
2022-08-02T01:06:02.361Z,98090.50
2022-08-02T01:08:32.001Z,98091.66
2022-08-02T01:11:00.069Z,98095.13
2022-08-02T01:13:28.586Z,98094.31
2022-08-02T01:16:11.709Z,98098.13
2022-08-02T01:18:45.668Z,98104.91
2022-08-02T01:21:49.117Z,98099.59
2022-08-02T01:24:59.438Z,98108.03
2022-08-02T01:28:29.864Z,98107.22
2022-08-02T01:31:08.378Z,98100.56
2022-08-02T01:33:48.945Z,98102.56
2022-08-02T01:36:20.388Z,98094.63
2022-08-02T01:38:53.661Z,98108.53
2022-08-02T01:41:28.204Z,98096.09
2022-08-02T01:43:59.812Z,98086.66
2022-08-02T01:46:30.375Z,98098.91
2022-08-02T01:49:01.920Z,98099.28
2022-08-02T01:51:50.781Z,98102.25
2022-08-02T01:54:25.069Z,98096.28
2022-08-02T01:56:55.845Z,98101.28
2022-08-02T01:59:26.459Z,98100.44
2022-08-02T02:01:58.711Z,98102.25
2022-08-02T02:04:31.019Z,98103.44
2022-08-02T02:06:59.254Z,98100.78
2022-08-02T02:09:30.710Z,98102.59
2022-08-02T02:12:12.171Z,98103.59
2022-08-02T02:14:51.984Z,98105.56
2022-08-02T02:17:52.888Z,98106.25
2022-08-02T02:20:17.638Z,98110.03
2022-08-02T02:22:45.983Z,98109.22
2022-08-02T02:25:23.723Z,98102.56
2022-08-02T02:28:09.719Z,98111.88
2022-08-02T02:30:42.656Z,98107.88
2022-08-02T02:33:11.864Z,98115.16
2022-08-02T02:35:42.279Z,98112.34
2022-08-02T02:38:14.766Z,98106.72
2022-08-02T02:40:45.108Z,98115.81
2022-08-02T02:43:14.592Z,98116.16
2022-08-02T02:45:45.198Z,98120.00
2022-08-02T02:48:15.356Z,98121.97
2022-08-02T02:50:44.273Z,98111.19
2022-08-02T02:53:16.715Z,98120.13
2022-08-02T02:56:01.662Z,98119.81
2022-08-02T02:58:32.393Z,98116.66
2022-08-02T03:01:19.553Z,98112.03
2022-08-02T03:03:48.086Z,98111.53
2022-08-02T03:06:16.215Z,98112.50
2022-08-02T03:08:44.137Z,98117.16
2022-08-02T03:11:12.875Z,98114.34
2022-08-02T03:13:41.059Z,98116.16
2022-08-02T03:16:09.029Z,98113.34
2022-08-02T03:18:39.542Z,98113.03
2022-08-02T03:21:14.364Z,98113.34
2022-08-02T03:23:43.772Z,98117.16
2022-08-02T03:26:11.519Z,98112.34
2022-08-02T03:28:38.761Z,98112.34
2022-08-02T03:31:06.044Z,98120.31
2022-08-02T03:33:35.644Z,98112.19
2022-08-02T03:36:13.901Z,98121.78
2022-08-02T03:38:44.023Z,98121.13
2022-08-02T03:41:16.821Z,98126.44
2022-08-02T03:43:47.979Z,98124.78
2022-08-02T03:46:21.719Z,98134.09
2022-08-02T03:48:51.916Z,98137.69
2022-08-02T03:51:20.955Z,98141.03
2022-08-02T03:53:49.240Z,98141.03
2022-08-02T03:56:17.228Z,98138.38
2022-08-02T03:58:48.619Z,98153.63
2022-08-02T04:01:17.013Z,98149.00
2022-08-02T04:03:44.469Z,98159.06
2022-08-02T04:06:11.789Z,98161.72
2022-08-02T04:08:39.164Z,98161.41
2022-08-02T04:11:25.770Z,98164.38
2022-08-02T04:13:56.984Z,98155.59
2022-08-02T04:16:39.489Z,98169.53
2022-08-02T04:19:15.006Z,98169.34
2022-08-02T04:21:51.620Z,98162.53
2022-08-02T04:24:36.303Z,98171.03
2022-08-02T04:27:51.321Z,98176.50
2022-08-02T04:29:57.854Z,98175.84
2022-08-02T04:32:25.622Z,98173.56
2022-08-02T04:35:21.170Z,98176.22
2022-08-02T04:38:08.923Z,98179.84
2022-08-02T04:40:29.897Z,98179.53
2022-08-02T04:42:57.397Z,98185.97
2022-08-02T04:45:26.940Z,98189.97
2022-08-02T04:48:03.816Z,98186.31
2022-08-02T04:50:31.846Z,98194.94
2022-08-02T04:52:59.075Z,98194.63
2022-08-02T04:55:29.222Z,98186.81
2022-08-02T04:57:58.422Z,98184.50
2022-08-02T05:00:28.807Z,98180.19
2022-08-02T05:02:57.457Z,98187.44
2022-08-02T05:05:25.426Z,98190.09
2022-08-02T05:07:53.419Z,98193.09
2022-08-02T05:10:21.056Z,98202.88
2022-08-02T05:12:48.640Z,98195.09
2022-08-02T05:15:18.466Z,98200.59
2022-08-02T05:17:48.666Z,98204.22
2022-08-02T05:20:18.020Z,98207.72
2022-08-02T05:22:46.568Z,98206.22
2022-08-02T05:25:14.309Z,98217.34
2022-08-02T05:27:43.087Z,98199.41
2022-08-02T05:30:11.167Z,98210.38
2022-08-02T05:32:52.656Z,98213.16
2022-08-02T05:35:22.836Z,98214.81
2022-08-02T05:37:51.877Z,98227.59
2022-08-02T05:40:25.412Z,98222.47
2022-08-02T05:42:55.251Z,98234.41
2022-08-02T05:45:24.106Z,98228.09
2022-08-02T05:47:52.190Z,98233.59
2022-08-02T05:50:20.103Z,98233.75
2022-08-02T05:52:57.326Z,98235.56
2022-08-02T05:55:34.397Z,98235.22
2022-08-02T05:58:33.402Z,98242.19
2022-08-02T06:01:04.113Z,98243.38
2022-08-02T06:03:40.181Z,98246.84
2022-08-02T06:06:17.826Z,98250.69
2022-08-02T06:08:50.554Z,98243.84
2022-08-02T06:11:22.841Z,98246.84
2022-08-02T06:13:56.265Z,98244.69
2022-08-02T06:16:32.129Z,98256.00
2022-08-02T06:19:02.448Z,98255.94
2022-08-02T06:22:32.651Z,98259.94
2022-08-02T06:24:22.203Z,98270.75
2022-08-02T06:26:55.152Z,98265.25
2022-08-02T06:29:24.830Z,98266.38
2022-08-02T06:31:54.184Z,98270.66
2022-08-02T06:34:21.409Z,98273.19
2022-08-02T06:37:21.101Z,98267.72
2022-08-02T06:39:50.934Z,98277.78
2022-08-02T06:42:46.503Z,98276.28
2022-08-02T06:45:14.021Z,98283.56
2022-08-02T06:47:41.426Z,98275.03
2022-08-02T06:50:09.838Z,98284.00
2022-08-02T06:52:37.939Z,98286.91
2022-08-02T06:55:06.644Z,98285.06
2022-08-02T06:57:34.818Z,98283.25
2022-08-02T07:00:06.730Z,98282.38
2022-08-02T07:02:39.954Z,98279.66
2022-08-02T07:05:09.335Z,98276.50
2022-08-02T07:07:37.092Z,98284.84
2022-08-02T07:10:04.959Z,98285.84
2022-08-02T07:12:34.679Z,98289.84
2022-08-02T07:15:06.779Z,98280.41
2022-08-02T07:17:35.774Z,98282.59
2022-08-02T07:20:04.113Z,98286.84
2022-08-02T07:22:31.463Z,98283.34
2022-08-02T07:25:00.433Z,98284.34
2022-08-02T07:27:28.689Z,98297.00
2022-08-02T07:29:56.703Z,98299.06
2022-08-02T07:32:30.230Z,98301.81
2022-08-02T07:34:58.839Z,98306.88
2022-08-02T07:37:53.690Z,98303.34
2022-08-02T07:40:20.078Z,98302.81
2022-08-02T07:42:59.371Z,98296.25
2022-08-02T07:45:31.169Z,98305.56
2022-08-02T07:47:58.801Z,98301.00
2022-08-02T07:50:28.381Z,98311.13
2022-08-02T07:52:57.938Z,98308.75
2022-08-02T07:55:35.238Z,98302.47
2022-08-02T07:58:10.863Z,98305.63
2022-08-02T08:00:39.509Z,98312.88
2022-08-02T08:03:06.793Z,98316.13
2022-08-02T08:05:34.023Z,98312.06
2022-08-02T08:08:01.491Z,98323.47
2022-08-02T08:10:28.980Z,98321.44
2022-08-02T08:12:56.386Z,98316.94
2022-08-02T08:15:24.977Z,98332.28
2022-08-02T08:17:52.277Z,98322.38
2022-08-02T08:20:19.503Z,98321.31
2022-08-02T08:22:47.989Z,98306.78
2022-08-02T08:25:15.275Z,98313.44
2022-08-02T08:27:52.919Z,98323.41
2022-08-02T08:30:22.355Z,98320.72
2022-08-02T08:32:49.917Z,98315.28
2022-08-02T08:35:17.795Z,98318.41
2022-08-02T08:37:45.340Z,98318.56
2022-08-02T08:40:13.635Z,98321.16
2022-08-02T08:42:47.279Z,98322.38
2022-08-02T08:45:14.707Z,98331.47
2022-08-02T08:47:43.221Z,98335.59
2022-08-02T08:50:25.141Z,98331.44
2022-08-02T08:53:03.754Z,98328.16
2022-08-02T08:55:34.822Z,98338.91
2022-08-02T08:58:03.895Z,98328.59
2022-08-02T09:00:35.807Z,98329.41
2022-08-02T09:03:06.469Z,98328.50
2022-08-02T09:05:47.296Z,98325.34
2022-08-02T09:08:16.988Z,98337.84
2022-08-02T09:10:47.069Z,98328.91
2022-08-02T09:13:38.161Z,98334.13
2022-08-02T09:16:14.178Z,98340.63
2022-08-02T09:18:46.926Z,98339.09
2022-08-02T09:21:17.151Z,98332.34
2022-08-02T09:23:52.708Z,98333.59
2022-08-02T09:26:23.731Z,98344.81
2022-08-02T09:28:59.366Z,98346.56
2022-08-02T09:31:27.123Z,98346.09
2022-08-02T09:34:01.025Z,98353.00
2022-08-02T09:36:44.464Z,98341.41
2022-08-02T09:39:15.863Z,98347.59
2022-08-02T09:41:45.571Z,98356.81
2022-08-02T09:44:16.568Z,98353.22
2022-08-02T09:46:46.398Z,98345.06
2022-08-02T09:49:19.614Z,98344.31
2022-08-02T09:51:47.495Z,98332.53
2022-08-02T09:54:34.075Z,98336.22
2022-08-02T09:57:02.359Z,98346.91
2022-08-02T09:59:30.986Z,98363.69
2022-08-02T10:02:02.399Z,98361.81
2022-08-02T10:04:33.892Z,98357.88
2022-08-02T10:07:04.610Z,98349.06
2022-08-02T10:09:33.251Z,98344.28
2022-08-02T10:12:03.574Z,98345.09
2022-08-02T10:14:34.622Z,98334.44
2022-08-02T10:17:05.149Z,98341.81
2022-08-02T10:20:01.764Z,98348.97
2022-08-02T10:22:21.659Z,98342.22
2022-08-02T10:24:51.688Z,98337.03
2022-08-02T10:27:21.278Z,98326.59
2022-08-02T10:29:54.101Z,98327.59
2022-08-02T10:32:54.817Z,98330.25
2022-08-02T10:35:26.629Z,98327.88
2022-08-02T10:38:04.073Z,98332.91
2022-08-02T10:40:50.314Z,98328.16
2022-08-02T10:43:43.347Z,98336.59
2022-08-02T10:46:38.351Z,98340.63
2022-08-02T10:49:39.271Z,98322.88
2022-08-02T10:52:06.927Z,98331.75
2022-08-02T10:54:43.666Z,98324.63
2022-08-02T10:57:28.869Z,98315.00
2022-08-02T11:00:00.700Z,98321.81
2022-08-02T11:02:47.296Z,98324.19
2022-08-02T11:05:43.398Z,98324.53
2022-08-02T11:08:22.452Z,98329.03
2022-08-02T11:10:49.804Z,98323.03
2022-08-02T11:13:19.863Z,98318.88
2022-08-02T11:16:10.629Z,98309.13
2022-08-02T11:18:51.157Z,98319.47
2022-08-02T11:21:31.342Z,98311.06
2022-08-02T11:24:27.965Z,98307.75
2022-08-02T11:26:56.879Z,98303.38
2022-08-02T11:29:43.935Z,98306.69
2022-08-02T11:32:30.990Z,98306.91
2022-08-02T11:35:00.662Z,98303.03
2022-08-02T11:37:35.829Z,98300.75
2022-08-02T11:40:09.103Z,98305.69
2022-08-02T11:42:44.627Z,98295.97
2022-08-02T11:45:21.062Z,98293.72
2022-08-02T11:47:54.779Z,98293.66
2022-08-02T11:50:29.950Z,98300.84
2022-08-02T11:52:58.216Z,98290.50
2022-08-02T11:55:31.585Z,98301.75
2022-08-02T11:58:04.177Z,98309.53
2022-08-02T12:00:32.832Z,98298.53
2022-08-02T12:03:00.487Z,98303.06
2022-08-02T12:06:03.999Z,98306.25
2022-08-02T12:08:22.007Z,98289.16
2022-08-02T12:10:50.931Z,98290.56
2022-08-02T12:13:18.548Z,98287.25
2022-08-02T12:15:47.662Z,98278.47
2022-08-02T12:18:41.824Z,98277.16
2022-08-02T12:21:27.375Z,98268.75
2022-08-02T12:24:00.485Z,98274.59
2022-08-02T12:26:30.546Z,98269.75
2022-08-02T12:28:59.640Z,98274.59
2022-08-02T12:31:56.008Z,98273.22
2022-08-02T12:34:31.842Z,98271.53
2022-08-02T12:37:10.248Z,98273.16
2022-08-02T12:39:43.115Z,98274.06
2022-08-02T12:42:15.848Z,98280.97
2022-08-02T12:44:58.946Z,98280.19
2022-08-02T12:47:36.190Z,98277.97
2022-08-02T12:50:13.075Z,98271.53
2022-08-02T12:52:40.298Z,98285.59
2022-08-02T12:55:24.389Z,98291.09
2022-08-02T12:58:02.596Z,98282.41
2022-08-02T13:00:34.276Z,98276.72
2022-08-02T13:03:02.353Z,98271.56
2022-08-02T13:05:55.833Z,98270.66
2022-08-02T13:08:18.441Z,98272.91
2022-08-02T13:10:45.782Z,98277.41
2022-08-02T13:13:13.108Z,98275.13
2022-08-02T13:15:49.600Z,98279.03
2022-08-02T13:18:18.673Z,98279.50
2022-08-02T13:20:46.142Z,98277.13
2022-08-02T13:23:21.729Z,98278.84
2022-08-02T13:25:52.683Z,98274.25
2022-08-02T13:28:21.198Z,98274.56
2022-08-02T13:30:49.406Z,98267.47
2022-08-02T13:33:18.341Z,98261.97
2022-08-02T13:35:47.422Z,98265.75
2022-08-02T13:38:14.829Z,98264.13
2022-08-02T13:41:05.109Z,98258.25
2022-08-02T13:43:52.173Z,98250.81
2022-08-02T13:46:29.259Z,98258.03
2022-08-02T13:48:57.328Z,98263.72
2022-08-02T13:51:24.891Z,98263.06
2022-08-02T13:53:52.157Z,98257.06
2022-08-02T13:56:19.520Z,98257.81
2022-08-02T13:59:54.696Z,98253.84
2022-08-02T14:01:54.452Z,98258.50
2022-08-02T14:04:22.726Z,98253.72
2022-08-02T14:06:50.082Z,98258.34
2022-08-02T14:09:18.031Z,98253.25
2022-08-02T14:11:46.647Z,98258.91
2022-08-02T14:14:16.900Z,98254.66
2022-08-02T14:16:47.382Z,98259.31
2022-08-02T14:19:16.619Z,98262.50
2022-08-02T14:21:48.745Z,98240.66
2022-08-02T14:24:21.512Z,98246.94
2022-08-02T14:26:50.077Z,98243.00
2022-08-02T14:29:17.979Z,98244.63
2022-08-02T14:31:45.586Z,98240.63
2022-08-02T14:34:14.084Z,98241.09
2022-08-02T14:36:42.069Z,98235.91
2022-08-02T14:39:10.106Z,98239.91
2022-08-02T14:41:58.261Z,98241.03
2022-08-02T14:44:25.222Z,98234.72
2022-08-02T14:46:52.737Z,98230.22
2022-08-02T14:49:26.096Z,98223.94
2022-08-02T14:51:55.565Z,98236.72
2022-08-02T14:54:28.139Z,98227.13
2022-08-02T14:57:01.445Z,98234.28
2022-08-02T14:59:29.996Z,98241.72
2022-08-02T15:01:57.956Z,98230.19
2022-08-02T15:04:25.946Z,98227.28
2022-08-02T15:06:54.311Z,98226.66
2022-08-02T15:09:22.729Z,98225.16
2022-08-02T15:11:50.303Z,98231.63
2022-08-02T15:14:22.122Z,98232.13
2022-08-02T15:16:58.175Z,98229.47
2022-08-02T15:19:56.066Z,98232.66
2022-08-02T15:22:19.122Z,98232.16
2022-08-02T15:24:48.802Z,98226.66
2022-08-02T15:27:17.034Z,98227.72
2022-08-02T15:29:46.937Z,98225.84
2022-08-02T15:32:18.495Z,98225.84
2022-08-02T15:34:47.499Z,98221.63
2022-08-02T15:37:14.944Z,98206.63
2022-08-02T15:39:42.316Z,98217.41
2022-08-02T15:42:10.252Z,98223.28
2022-08-02T15:44:37.832Z,98225.00
2022-08-02T15:47:08.726Z,98233.38
2022-08-02T15:49:39.452Z,98233.00
2022-08-02T15:52:09.756Z,98225.88
2022-08-02T15:54:37.347Z,98228.56
2022-08-02T15:57:04.974Z,98233.47
2022-08-02T15:59:32.345Z,98224.00
2022-08-02T16:01:59.850Z,98227.38
2022-08-02T16:04:27.159Z,98230.72
2022-08-02T16:06:54.350Z,98224.03
2022-08-02T16:09:21.812Z,98220.50
2022-08-02T16:11:49.270Z,98222.69
2022-08-02T16:14:16.567Z,98230.50
2022-08-02T16:16:44.927Z,98225.28
2022-08-02T16:19:47.400Z,98229.09
2022-08-02T16:21:59.691Z,98224.38
2022-08-02T16:24:27.202Z,98221.50
2022-08-02T16:26:54.528Z,98215.59
2022-08-02T16:29:22.059Z,98222.63
2022-08-02T16:31:49.471Z,98223.75
2022-08-02T16:34:18.166Z,98223.81
2022-08-02T16:36:46.147Z,98223.69
2022-08-02T16:39:14.589Z,98225.78
2022-08-02T16:41:50.603Z,98223.16
2022-08-02T16:44:27.565Z,98215.00
2022-08-02T16:47:01.856Z,98218.78
2022-08-02T16:50:04.866Z,98219.25
2022-08-02T16:52:19.513Z,98227.13
2022-08-02T16:54:49.671Z,98223.69
2022-08-02T16:57:20.045Z,98215.88
2022-08-02T16:59:57.904Z,98222.75
2022-08-02T17:02:27.742Z,98223.34
2022-08-02T17:04:56.765Z,98214.31
2022-08-02T17:08:07.694Z,98224.06
2022-08-02T17:10:12.118Z,98230.53
2022-08-02T17:12:40.167Z,98220.22
2022-08-02T17:16:01.289Z,98216.38
2022-08-02T17:17:56.980Z,98216.25
2022-08-02T17:20:24.769Z,98228.88
2022-08-02T17:22:52.812Z,98228.66
2022-08-02T17:25:21.744Z,98227.84
2022-08-02T17:27:55.617Z,98228.72
2022-08-02T17:30:26.467Z,98222.78
2022-08-02T17:32:57.880Z,98225.25
2022-08-02T17:35:43.370Z,98229.44
2022-08-02T17:38:26.098Z,98231.91
2022-08-02T17:40:55.861Z,98231.53
2022-08-02T17:43:29.145Z,98238.16
2022-08-02T17:46:00.000Z,98235.09
2022-08-02T17:48:50.315Z,98240.44
2022-08-02T17:52:15.043Z,98237.16
2022-08-02T17:54:11.863Z,98234.47
2022-08-02T17:56:42.506Z,98243.16
2022-08-02T17:59:31.066Z,98234.28
2022-08-02T18:02:11.269Z,98241.50
2022-08-02T18:04:39.069Z,98248.47
2022-08-02T18:07:09.676Z,98242.25
2022-08-02T18:09:43.425Z,98244.47
2022-08-02T18:12:25.947Z,98249.13
2022-08-02T18:14:55.256Z,98244.56
2022-08-02T18:17:22.663Z,98249.06
2022-08-02T18:19:57.455Z,98251.44
2022-08-02T18:22:28.057Z,98254.25
2022-08-02T18:24:55.409Z,98258.09
2022-08-02T18:27:23.786Z,98252.44
2022-08-02T18:30:04.191Z,98260.19
2022-08-02T18:33:55.239Z,98256.75
2022-08-02T18:35:20.716Z,98258.31
2022-08-02T18:37:56.911Z,98253.28
2022-08-02T18:40:28.733Z,98254.34
2022-08-02T18:42:55.990Z,98252.22
2022-08-02T18:45:23.415Z,98261.56
2022-08-02T18:47:51.442Z,98254.84
2022-08-02T18:50:20.256Z,98262.53
2022-08-02T18:52:48.238Z,98260.81
2022-08-02T18:55:17.558Z,98258.88
2022-08-02T18:58:18.405Z,98263.50
2022-08-02T19:00:51.721Z,98263.13
2022-08-02T19:03:20.649Z,98270.69
2022-08-02T19:05:52.372Z,98278.78
2022-08-02T19:08:26.145Z,98280.16
2022-08-02T19:10:56.460Z,98283.13
2022-08-02T19:13:24.838Z,98276.84
2022-08-02T19:15:53.525Z,98284.22
2022-08-02T19:18:26.890Z,98287.41
2022-08-02T19:21:05.138Z,98282.47
2022-08-02T19:23:33.473Z,98283.16
2022-08-02T19:26:01.645Z,98277.91
2022-08-02T19:28:29.314Z,98284.69
2022-08-02T19:30:58.252Z,98277.78
2022-08-02T19:34:04.350Z,98279.50
2022-08-02T19:36:13.340Z,98277.56
2022-08-02T19:38:45.545Z,98287.94
2022-08-02T19:41:16.765Z,98276.59
2022-08-02T19:44:24.211Z,98278.63
2022-08-02T19:46:31.772Z,98279.19
2022-08-02T19:49:16.359Z,98280.06
2022-08-02T19:51:49.921Z,98287.28
2022-08-02T19:57:14.326Z,98280.34
2022-08-02T19:59:46.973Z,98282.50
2022-08-02T20:02:15.891Z,98280.84
2022-08-02T20:04:49.832Z,98283.94
2022-08-02T20:07:49.934Z,98285.47
2022-08-02T20:10:06.124Z,98288.84
2022-08-02T20:12:39.946Z,98287.38
2022-08-02T20:15:15.009Z,98303.34
2022-08-02T20:17:47.692Z,98304.50
2022-08-02T20:20:17.698Z,98296.22
2022-08-02T20:23:31.926Z,98297.22
2022-08-02T20:25:54.051Z,98301.41
2022-08-02T20:28:22.577Z,98308.38
2022-08-02T20:30:50.152Z,98309.06
2022-08-02T20:33:22.114Z,98305.56
2022-08-02T20:35:53.288Z,98307.75
2022-08-02T20:38:24.880Z,98305.75
2022-08-02T20:40:56.002Z,98306.94
2022-08-02T20:43:31.140Z,98306.94
2022-08-02T20:46:00.576Z,98302.94
2022-08-02T20:48:30.367Z,98300.00
2022-08-02T20:50:58.615Z,98303.66
2022-08-02T20:53:29.946Z,98308.00
2022-08-02T20:55:58.205Z,98303.53
2022-08-02T20:58:26.658Z,98306.22
2022-08-02T21:00:59.406Z,98290.97
2022-08-02T21:03:39.121Z,98296.47
2022-08-02T21:06:09.973Z,98293.00
2022-08-02T21:08:38.733Z,98290.50
2022-08-02T21:14:06.938Z,98290.00
2022-08-02T21:16:37.204Z,98291.19
2022-08-02T21:19:07.905Z,98289.34
2022-08-02T21:21:38.226Z,98288.53
2022-08-02T21:24:05.935Z,98292.69
2022-08-02T21:26:33.452Z,98299.47
2022-08-02T21:31:49.339Z,98302.31
2022-08-02T21:34:26.545Z,98294.69
2022-08-02T21:36:55.724Z,98297.16
2022-08-02T21:39:23.491Z,98286.53
2022-08-02T21:41:51.158Z,98293.50
2022-08-02T21:44:22.186Z,98299.66
2022-08-02T21:46:54.095Z,98292.50
2022-08-02T21:49:40.495Z,98293.34
2022-08-02T21:52:11.495Z,98302.97
2022-08-02T21:54:40.017Z,98297.97
2022-08-02T21:57:16.580Z,98301.63
2022-08-02T21:59:46.440Z,98303.44
2022-08-02T22:02:15.995Z,98307.94
2022-08-02T22:04:47.517Z,98299.97
2022-08-02T22:07:24.038Z,98308.59
2022-08-02T22:09:53.257Z,98304.09
2022-08-02T22:12:21.884Z,98308.75
2022-08-02T22:14:55.672Z,98313.41
2022-08-02T22:17:51.123Z,98313.59
2022-08-02T22:20:19.642Z,98310.28
2022-08-02T22:22:50.157Z,98312.09
2022-08-02T22:25:26.345Z,98311.25
2022-08-02T22:28:36.191Z,98312.25
2022-08-02T22:30:46.469Z,98315.25
2022-08-02T22:33:42.559Z,98312.91
2022-08-02T22:36:15.653Z,98314.06
2022-08-02T22:38:45.140Z,98315.22
2022-08-02T22:41:14.732Z,98316.22
2022-08-02T22:43:43.335Z,98323.19
2022-08-02T22:46:15.383Z,98318.88
2022-08-02T22:48:45.570Z,98323.53
2022-08-02T22:51:15.160Z,98321.72
2022-08-02T22:53:44.543Z,98323.53
2022-08-02T22:56:14.519Z,98321.06
2022-08-02T22:58:53.720Z,98283.47
2022-08-02T22:59:02.909Z,98296.16
2022-08-02T22:59:12.142Z,98295.31
2022-08-02T23:01:30.851Z,98313.06
2022-08-02T23:03:58.618Z,98316.19
2022-08-02T23:06:25.823Z,98314.88
2022-08-02T23:08:53.105Z,98309.22
2022-08-02T23:11:20.586Z,98310.38
2022-08-02T23:13:47.861Z,98309.72
2022-08-02T23:16:39.039Z,98307.88
2022-08-02T23:19:25.482Z,98314.66
2022-08-02T23:22:01.679Z,98313.81
2022-08-02T23:24:33.533Z,98310.84
2022-08-02T23:27:01.517Z,98312.97
2022-08-02T23:29:29.057Z,98310.78
2022-08-02T23:31:56.668Z,98302.13
2022-08-02T23:34:26.568Z,98302.31
2022-08-02T23:36:53.799Z,98300.00
2022-08-02T23:39:21.353Z,98302.63
2022-08-02T23:41:49.292Z,98300.97
2022-08-02T23:44:23.743Z,98294.84
2022-08-02T23:46:52.414Z,98300.16
2022-08-02T23:49:20.597Z,98306.47
2022-08-02T23:51:50.209Z,98300.31
2022-08-02T23:54:18.387Z,98297.66
2022-08-02T23:56:46.300Z,98287.06
2022-08-02T23:59:14.612Z,98287.38
